createdAt,value
2024-05-09T05:01:37.646Z,50.00
2024-05-09T05:02:15.256Z,50.00
2024-05-09T05:03:16.289Z,50.00
2024-05-09T05:04:15.240Z,50.00
2024-05-09T05:05:15.419Z,50.00
2024-05-09T05:06:15.093Z,50.00
2024-05-09T05:07:15.078Z,26.71
2024-05-09T05:08:15.571Z,0.00
2024-05-09T05:09:15.113Z,0.00
2024-05-09T05:10:21.657Z,0.00
2024-05-09T05:11:16.197Z,0.00
2024-05-09T05:12:15.261Z,0.00
2024-05-09T05:13:15.088Z,0.00
2024-05-09T05:14:15.115Z,0.00
2024-05-09T05:15:15.099Z,0.00
2024-05-09T05:16:15.100Z,0.00
2024-05-09T05:17:15.149Z,0.00
2024-05-09T05:18:15.465Z,0.00
2024-05-09T05:19:17.494Z,0.00
2024-05-09T05:20:24.059Z,0.00
2024-05-09T05:21:16.437Z,0.00
2024-05-09T05:22:15.345Z,0.00
2024-05-09T05:23:15.978Z,0.00
2024-05-09T05:24:15.351Z,0.00
2024-05-09T05:25:15.386Z,0.00
2024-05-09T05:26:15.424Z,0.00
2024-05-09T05:27:15.401Z,0.00
2024-05-09T05:28:15.429Z,0.00
2024-05-09T05:29:17.209Z,0.00
2024-05-09T05:30:21.419Z,0.00
2024-05-09T05:31:16.438Z,0.00
2024-05-09T05:32:15.538Z,0.00
2024-05-09T05:33:15.979Z,0.00
2024-05-09T05:34:15.396Z,0.00
2024-05-09T05:35:15.435Z,0.00
2024-05-09T05:36:15.413Z,0.00
2024-05-09T05:37:15.440Z,0.00
2024-05-09T05:38:15.563Z,0.00
2024-05-09T05:39:15.406Z,0.00
2024-05-09T05:40:25.245Z,0.00
2024-05-09T05:41:16.579Z,0.00
2024-05-09T05:42:15.447Z,0.00
2024-05-09T05:43:15.417Z,0.00
2024-05-09T05:44:15.443Z,0.00
2024-05-09T05:45:15.430Z,0.00
2024-05-09T05:46:15.435Z,0.00
2024-05-09T05:47:15.544Z,0.00
2024-05-09T05:48:15.739Z,0.00
2024-05-09T05:49:15.751Z,5.96
2024-05-09T05:50:24.473Z,24.53
2024-05-09T05:51:16.584Z,23.07
2024-05-09T05:52:15.424Z,21.72
2024-05-09T05:53:15.906Z,18.33
2024-05-09T05:54:15.439Z,13.49
2024-05-09T05:55:15.449Z,16.25
2024-05-09T05:56:15.524Z,33.31
2024-05-09T05:57:15.447Z,50.66
2024-05-09T05:58:15.483Z,50.92
2024-05-09T05:59:15.898Z,51.44
2024-05-09T06:00:25.931Z,51.39
2024-05-09T06:01:16.563Z,49.22
2024-05-09T06:02:15.633Z,48.87
2024-05-09T06:03:15.634Z,46.20
2024-05-09T06:04:15.540Z,45.30
2024-05-09T06:05:15.569Z,44.64
2024-05-09T06:06:15.459Z,49.77
2024-05-09T06:07:15.492Z,51.30
2024-05-09T06:08:15.617Z,50.67
2024-05-09T06:09:15.494Z,51.10
2024-05-09T06:10:21.418Z,50.74
2024-05-09T06:11:16.646Z,50.80
2024-05-09T06:12:15.590Z,49.96
2024-05-09T06:13:15.733Z,48.88
2024-05-09T06:14:15.574Z,48.45
2024-05-09T06:15:15.500Z,47.75
2024-05-09T06:16:15.500Z,51.88
2024-05-09T06:17:15.707Z,50.27
2024-05-09T06:18:15.714Z,54.10
2024-05-09T06:19:15.707Z,54.87
2024-05-09T06:20:20.755Z,52.07
2024-05-09T06:21:16.727Z,51.35
2024-05-09T06:22:15.537Z,49.39
2024-05-09T06:23:15.568Z,50.18
2024-05-09T06:24:15.542Z,46.03
2024-05-09T06:25:15.551Z,46.69
2024-05-09T06:26:15.562Z,50.00
2024-05-09T06:27:15.600Z,52.04
2024-05-09T06:28:15.589Z,51.05
2024-05-09T06:29:15.625Z,51.12
2024-05-09T06:30:25.663Z,52.08
2024-05-09T06:31:16.581Z,52.14
2024-05-09T06:32:15.695Z,51.08
2024-05-09T06:33:16.758Z,50.68
2024-05-09T06:34:15.840Z,50.01
2024-05-09T06:35:15.608Z,47.44
2024-05-09T06:36:15.589Z,50.32
2024-05-09T06:37:15.596Z,52.55
2024-05-09T06:38:15.631Z,50.30
2024-05-09T06:39:15.633Z,54.37
2024-05-09T06:40:21.356Z,52.81
2024-05-09T06:41:16.774Z,52.86
2024-05-09T06:42:15.608Z,51.54
2024-05-09T06:43:17.813Z,51.97
2024-05-09T06:44:15.638Z,49.18
2024-05-09T06:45:15.658Z,49.51
2024-05-09T06:46:15.634Z,48.89
2024-05-09T06:47:15.764Z,48.60
2024-05-09T06:48:15.779Z,47.93
2024-05-09T06:49:15.877Z,52.54
2024-05-09T06:50:23.374Z,51.64
2024-05-09T06:51:16.832Z,51.72
2024-05-09T06:52:15.617Z,51.90
2024-05-09T06:53:15.755Z,52.29
2024-05-09T06:54:15.628Z,51.94
2024-05-09T06:55:15.636Z,49.34
2024-05-09T06:56:15.693Z,50.53
2024-05-09T06:57:15.652Z,50.01
2024-05-09T06:58:15.641Z,51.83
2024-05-09T06:59:15.682Z,51.44
2024-05-09T07:00:23.017Z,52.11
2024-05-09T07:01:16.669Z,52.17
2024-05-09T07:02:15.906Z,50.99
2024-05-09T07:03:17.887Z,49.58
2024-05-09T07:04:15.889Z,52.52
2024-05-09T07:05:15.887Z,49.10
2024-05-09T07:06:15.703Z,51.74
2024-05-09T07:07:15.654Z,50.91
2024-05-09T07:08:15.866Z,51.41
2024-05-09T07:09:15.664Z,52.22
2024-05-09T07:10:22.087Z,52.87
2024-05-09T07:11:16.768Z,51.49
2024-05-09T07:12:15.799Z,50.85
2024-05-09T07:13:16.055Z,52.19
2024-05-09T07:14:15.694Z,50.27
2024-05-09T07:15:15.677Z,51.64
2024-05-09T07:16:15.667Z,51.76
2024-05-09T07:17:15.789Z,51.97
2024-05-09T07:18:16.910Z,53.25
2024-05-09T07:19:16.047Z,52.91
2024-05-09T07:20:23.197Z,53.95
2024-05-09T07:21:17.057Z,52.78
2024-05-09T07:22:15.901Z,52.37
2024-05-09T07:23:16.297Z,52.55
2024-05-09T07:24:15.900Z,52.07
2024-05-09T07:25:15.886Z,51.70
2024-05-09T07:26:16.018Z,50.24
2024-05-09T07:27:15.901Z,52.29
2024-05-09T07:28:16.107Z,52.62
2024-05-09T07:29:15.974Z,51.03
2024-05-09T07:30:22.972Z,52.33
2024-05-09T07:31:16.909Z,51.90
2024-05-09T07:32:16.106Z,50.00
2024-05-09T07:33:16.254Z,48.78
2024-05-09T07:34:16.144Z,50.64
2024-05-09T07:35:16.102Z,48.60
2024-05-09T07:36:15.976Z,49.71
2024-05-09T07:37:15.913Z,53.29
2024-05-09T07:38:15.979Z,51.36
2024-05-09T07:39:15.932Z,52.38
2024-05-09T07:40:24.878Z,54.03
2024-05-09T07:41:17.057Z,51.81
2024-05-09T07:42:15.934Z,52.72
2024-05-09T07:43:16.334Z,52.32
2024-05-09T07:44:15.971Z,51.96
2024-05-09T07:45:38.954Z,47.28
2024-05-09T07:47:14.344Z,50.12
2024-05-09T07:48:28.962Z,50.61
2024-05-09T07:49:59.730Z,50.71
2024-05-09T07:50:56.086Z,53.33
2024-05-09T07:53:29.866Z,48.34
2024-05-09T07:53:37.950Z,50.82
2024-05-09T07:54:17.136Z,50.58
2024-05-09T07:55:16.177Z,49.48
2024-05-09T07:56:16.478Z,49.56
2024-05-09T07:57:16.074Z,45.30
2024-05-09T07:58:15.980Z,41.80
2024-05-09T07:59:16.046Z,50.55
2024-05-09T08:00:23.491Z,53.48
2024-05-09T08:01:17.108Z,52.01
2024-05-09T08:02:16.074Z,50.76
2024-05-09T08:03:16.150Z,51.52
2024-05-09T08:04:16.073Z,52.15
2024-05-09T08:05:16.107Z,47.55
2024-05-09T08:06:15.979Z,51.04
2024-05-09T08:07:16.046Z,52.99
2024-05-09T08:08:15.981Z,51.43
2024-05-09T08:09:20.822Z,51.33
2024-05-09T08:10:22.094Z,51.42
2024-05-09T08:11:17.093Z,51.45
2024-05-09T08:12:16.009Z,52.12
2024-05-09T08:13:16.082Z,53.70
2024-05-09T08:14:16.020Z,54.99
2024-05-09T08:15:16.032Z,59.06
2024-05-09T08:16:16.136Z,56.96
2024-05-09T08:17:16.058Z,56.42
2024-05-09T08:18:16.132Z,58.88
2024-05-09T08:19:16.112Z,58.64
2024-05-09T08:20:26.451Z,61.26
2024-05-09T08:21:17.032Z,61.41
2024-05-09T08:22:16.061Z,61.72
2024-05-09T08:23:16.053Z,62.08
2024-05-09T08:24:16.029Z,64.21
2024-05-09T08:25:16.108Z,67.46
2024-05-09T08:26:16.051Z,65.97
2024-05-09T08:27:16.036Z,67.01
2024-05-09T08:28:16.373Z,67.24
2024-05-09T08:29:16.295Z,68.09
2024-05-09T08:30:22.030Z,70.03
2024-05-09T08:31:17.135Z,70.10
2024-05-09T08:32:16.048Z,70.47
2024-05-09T08:33:16.187Z,70.99
2024-05-09T08:34:16.230Z,73.40
2024-05-09T08:35:16.046Z,72.08
2024-05-09T08:36:16.085Z,74.91
2024-05-09T08:37:22.437Z,77.43
2024-05-09T08:38:17.072Z,77.47
2024-05-09T08:39:16.066Z,76.56
2024-05-09T08:40:23.864Z,76.73
2024-05-09T08:41:17.102Z,77.54
2024-05-09T08:42:16.062Z,78.22
2024-05-09T08:43:16.197Z,79.26
2024-05-09T08:44:16.081Z,81.03
2024-05-09T08:45:16.094Z,84.80
2024-05-09T08:46:16.092Z,82.63
2024-05-09T08:47:16.086Z,84.86
2024-05-09T08:48:16.668Z,85.91
2024-05-09T08:49:16.169Z,83.00
2024-05-09T08:50:28.578Z,85.09
2024-05-09T08:51:17.101Z,85.16
2024-05-09T08:52:16.156Z,85.52
2024-05-09T08:53:16.097Z,86.37
2024-05-09T08:54:16.114Z,88.11
2024-05-09T08:55:16.111Z,89.59
2024-05-09T08:56:16.102Z,88.33
2024-05-09T08:57:16.104Z,87.99
2024-05-09T08:58:16.603Z,88.53
2024-05-09T08:59:16.142Z,91.81
2024-05-09T09:00:25.582Z,90.11
2024-05-09T09:01:17.308Z,90.21
2024-05-09T09:02:16.299Z,90.62
2024-05-09T09:03:16.188Z,91.53
2024-05-09T09:04:16.421Z,92.73
2024-05-09T09:05:16.508Z,95.96
2024-05-09T09:06:16.194Z,94.39
2024-05-09T09:07:16.215Z,94.87
2024-05-09T09:08:16.213Z,96.54
2024-05-09T09:09:23.720Z,50.00
2024-05-09T09:10:29.828Z,50.00
2024-05-09T09:11:24.744Z,50.00
2024-05-09T09:12:23.680Z,50.00
2024-05-09T09:13:23.813Z,50.00
2024-05-09T09:14:23.722Z,50.00
2024-05-09T09:15:23.727Z,50.00
2024-05-09T09:16:23.737Z,50.00
2024-05-09T09:17:23.736Z,51.83
2024-05-09T09:18:23.786Z,50.33
2024-05-09T09:19:23.983Z,52.47
2024-05-09T09:20:29.397Z,52.33
2024-05-09T09:21:24.822Z,52.41
2024-05-09T09:22:23.705Z,52.21
2024-05-09T09:23:23.713Z,52.34
2024-05-09T09:24:23.730Z,53.17
2024-05-09T09:25:23.761Z,56.20
2024-05-09T09:26:23.706Z,54.68
2024-05-09T09:27:23.705Z,57.17
2024-05-09T09:28:23.741Z,54.05
2024-05-09T09:29:23.720Z,56.58
2024-05-09T09:30:34.536Z,53.94
2024-05-09T09:31:24.861Z,54.06
2024-05-09T09:32:23.862Z,54.14
2024-05-09T09:33:23.890Z,54.46
2024-05-09T09:34:24.010Z,54.79
2024-05-09T09:35:23.846Z,53.88
2024-05-09T09:36:23.872Z,55.46
2024-05-09T09:37:23.860Z,55.87
2024-05-09T09:38:23.841Z,56.43
2024-05-09T09:39:23.859Z,56.31
2024-05-09T09:40:29.273Z,57.42
2024-05-09T09:41:24.864Z,57.43
2024-05-09T09:42:23.862Z,56.81
2024-05-09T09:43:23.896Z,58.49
2024-05-09T09:44:23.882Z,58.36
2024-05-09T09:45:23.867Z,56.79
2024-05-09T09:46:23.919Z,59.49
2024-05-09T09:47:23.899Z,58.92
2024-05-09T09:48:24.613Z,59.65
2024-05-09T09:49:23.916Z,60.49
2024-05-09T09:50:31.574Z,59.09
2024-05-09T09:51:24.876Z,59.19
2024-05-09T09:52:23.975Z,59.23
2024-05-09T09:53:23.897Z,60.35
2024-05-09T09:54:23.902Z,60.18
2024-05-09T09:55:23.995Z,61.99
2024-05-09T09:56:23.907Z,61.23
2024-05-09T09:57:23.886Z,62.07
2024-05-09T09:58:24.069Z,60.76
2024-05-09T09:59:23.896Z,62.36
2024-05-09T10:00:29.942Z,61.99
2024-05-09T10:01:25.012Z,62.05
2024-05-09T10:02:24.055Z,62.33
2024-05-09T10:03:24.158Z,62.98
2024-05-09T10:04:23.925Z,62.19
2024-05-09T10:05:24.210Z,63.95
2024-05-09T10:06:23.958Z,63.94
2024-05-09T10:07:24.004Z,64.83
2024-05-09T10:08:23.957Z,64.36
2024-05-09T10:09:23.913Z,62.97
2024-05-09T10:10:30.342Z,64.42
2024-05-09T10:11:25.022Z,64.44
2024-05-09T10:12:24.029Z,63.54
2024-05-09T10:13:23.969Z,64.41
2024-05-09T10:14:23.948Z,65.45
2024-05-09T10:15:23.948Z,65.74
2024-05-09T10:16:24.237Z,64.56
2024-05-09T10:17:23.941Z,66.15
2024-05-09T10:18:24.478Z,67.85
2024-05-09T10:19:24.028Z,66.68
2024-05-09T10:20:28.068Z,65.41
2024-05-09T10:21:24.952Z,65.47
2024-05-09T10:22:23.967Z,65.67
2024-05-09T10:23:23.981Z,65.68
2024-05-09T10:24:23.936Z,66.39
2024-05-09T10:25:24.263Z,67.81
2024-05-09T10:26:23.972Z,67.05
2024-05-09T10:27:23.949Z,67.74
2024-05-09T10:28:23.944Z,67.41
2024-05-09T10:29:23.978Z,67.21
2024-05-09T10:30:33.323Z,66.94
2024-05-09T10:31:25.006Z,67.03
2024-05-09T10:32:24.034Z,67.32
2024-05-09T10:33:24.022Z,67.79
2024-05-09T10:34:24.257Z,68.75
2024-05-09T10:35:23.964Z,69.66
2024-05-09T10:36:23.986Z,68.41
2024-05-09T10:37:24.074Z,69.09
2024-05-09T10:38:23.958Z,68.16
2024-05-09T10:39:23.966Z,68.59
2024-05-09T10:40:30.972Z,68.49
2024-05-09T10:41:24.983Z,68.54
2024-05-09T10:42:23.991Z,68.62
2024-05-09T10:43:23.982Z,68.96
2024-05-09T10:44:24.011Z,69.66
2024-05-09T10:45:24.013Z,70.35
2024-05-09T10:46:24.028Z,69.78
2024-05-09T10:47:24.289Z,67.18
2024-05-09T10:48:24.095Z,66.96
2024-05-09T10:49:24.136Z,67.90
2024-05-09T10:50:28.663Z,68.16
2024-05-09T10:51:25.014Z,68.24
2024-05-09T10:52:24.129Z,67.68
2024-05-09T10:53:24.061Z,68.67
2024-05-09T10:54:24.057Z,68.97
2024-05-09T10:55:24.158Z,67.25
2024-05-09T10:56:24.060Z,66.90
2024-05-09T10:57:24.057Z,68.33
2024-05-09T10:58:24.080Z,66.73
2024-05-09T10:59:24.058Z,68.25
2024-05-09T11:00:33.054Z,66.71
2024-05-09T11:01:25.169Z,66.82
2024-05-09T11:02:24.209Z,67.09
2024-05-09T11:03:25.062Z,67.14
2024-05-09T11:04:24.186Z,68.14
2024-05-09T11:05:24.153Z,69.41
2024-05-09T11:06:24.065Z,70.30
2024-05-09T11:07:24.154Z,71.14
2024-05-09T11:08:24.088Z,70.72
2024-05-09T11:09:24.068Z,69.51
2024-05-09T11:10:27.621Z,70.23
2024-05-09T11:11:25.164Z,70.31
2024-05-09T11:12:24.929Z,70.47
2024-05-09T11:13:24.078Z,71.25
2024-05-09T11:14:24.108Z,72.44
2024-05-09T11:15:24.087Z,74.45
2024-05-09T11:16:24.240Z,75.75
2024-05-09T11:17:24.197Z,75.79
2024-05-09T11:18:25.108Z,75.26
2024-05-09T11:19:24.332Z,74.92
2024-05-09T11:20:29.671Z,76.25
2024-05-09T11:21:25.184Z,75.32
2024-05-09T11:22:24.141Z,76.31
2024-05-09T11:23:24.108Z,75.44
2024-05-09T11:24:24.118Z,77.39
2024-05-09T11:25:24.142Z,75.90
2024-05-09T11:26:24.114Z,76.53
2024-05-09T11:27:24.114Z,76.79
2024-05-09T11:28:24.174Z,76.97
2024-05-09T11:29:24.114Z,76.68
2024-05-09T11:30:29.952Z,77.89
2024-05-09T11:31:25.381Z,77.95
2024-05-09T11:32:24.183Z,78.01
2024-05-09T11:33:24.138Z,77.91
2024-05-09T11:34:24.268Z,76.35
2024-05-09T11:35:24.185Z,79.24
2024-05-09T11:36:24.212Z,77.97
2024-05-09T11:37:24.224Z,77.08
2024-05-09T11:38:24.193Z,76.16
2024-05-09T11:39:24.173Z,77.62
2024-05-09T11:40:28.076Z,77.04
2024-05-09T11:41:25.303Z,77.11
2024-05-09T11:42:24.314Z,77.42
2024-05-09T11:43:24.339Z,77.24
2024-05-09T11:44:24.310Z,79.82
2024-05-09T11:45:24.302Z,81.00
2024-05-09T11:46:24.393Z,81.19
2024-05-09T11:47:24.380Z,80.03
2024-05-09T11:48:24.477Z,78.60
2024-05-09T11:49:26.922Z,78.95
2024-05-09T11:50:29.940Z,79.54
2024-05-09T11:51:25.299Z,79.61
2024-05-09T11:52:24.356Z,79.72
2024-05-09T11:53:24.320Z,79.59
2024-05-09T11:54:24.351Z,80.09
2024-05-09T11:55:27.698Z,80.92
2024-05-09T11:56:24.362Z,79.68
2024-05-09T11:57:24.375Z,79.62
2024-05-09T11:58:24.426Z,80.36
2024-05-09T11:59:24.363Z,80.03
2024-05-09T12:00:33.699Z,81.00
2024-05-09T12:01:27.705Z,79.68
2024-05-09T12:02:24.501Z,79.70
2024-05-09T12:03:24.454Z,79.62
2024-05-09T12:04:24.601Z,81.20
2024-05-09T12:05:24.506Z,82.44
2024-05-09T12:06:24.369Z,82.69
2024-05-09T12:07:24.438Z,79.84
2024-05-09T12:08:24.388Z,81.70
2024-05-09T12:09:24.475Z,78.59
2024-05-09T12:10:32.111Z,76.43
2024-05-09T12:11:25.423Z,75.29
2024-05-09T12:12:24.409Z,72.41
2024-05-09T12:13:24.553Z,70.01
2024-05-09T12:14:24.379Z,67.36
2024-05-09T12:15:24.408Z,62.41
2024-05-09T12:16:24.743Z,60.29
2024-05-09T12:17:24.496Z,60.23
2024-05-09T12:18:24.515Z,58.23
2024-05-09T12:19:24.512Z,54.62
2024-05-09T12:20:32.383Z,50.43
2024-05-09T12:21:25.416Z,49.20
2024-05-09T12:22:24.500Z,46.50
2024-05-09T12:23:24.413Z,46.24
2024-05-09T12:24:24.403Z,42.90
2024-05-09T12:25:24.533Z,40.78
2024-05-09T12:26:24.445Z,50.39
2024-05-09T12:27:24.425Z,50.94
2024-05-09T12:28:24.671Z,51.36
2024-05-09T12:29:24.428Z,51.05
2024-05-09T12:30:34.448Z,49.57
2024-05-09T12:31:25.537Z,49.44
2024-05-09T12:32:24.510Z,48.53
2024-05-09T12:33:24.754Z,48.25
2024-05-09T12:34:24.501Z,44.14
2024-05-09T12:35:24.440Z,40.40
2024-05-09T12:36:24.462Z,51.75
2024-05-09T12:37:24.551Z,52.82
2024-05-09T12:38:24.448Z,50.39
2024-05-09T12:39:24.504Z,52.85
2024-05-09T12:40:31.859Z,54.35
2024-05-09T12:41:25.615Z,53.62
2024-05-09T12:42:27.480Z,47.87
2024-05-09T12:43:24.749Z,49.99
2024-05-09T12:44:24.615Z,47.15
2024-05-09T12:45:24.618Z,43.04
2024-05-09T12:46:24.773Z,41.03
2024-05-09T12:47:24.743Z,34.26
2024-05-09T12:48:24.774Z,50.00
2024-05-09T12:49:24.745Z,50.00
2024-05-09T12:50:31.114Z,52.77
2024-05-09T12:51:25.603Z,52.82
2024-05-09T12:52:24.642Z,51.21
2024-05-09T12:53:24.682Z,52.77
2024-05-09T12:54:24.633Z,52.62
2024-05-09T12:55:24.676Z,53.94
2024-05-09T12:56:24.638Z,54.67
2024-05-09T12:57:24.648Z,51.00
2024-05-09T12:58:24.822Z,51.14
2024-05-09T12:59:24.722Z,53.29
2024-05-09T13:00:31.428Z,53.08
2024-05-09T13:01:25.949Z,53.10
2024-05-09T13:02:24.925Z,51.31
2024-05-09T13:03:24.940Z,53.14
2024-05-09T13:04:25.022Z,49.24
2024-05-09T13:05:25.027Z,49.96
2024-05-09T13:06:24.847Z,52.95
2024-05-09T13:07:24.898Z,50.17
2024-05-09T13:08:24.863Z,52.36
2024-05-09T13:09:24.866Z,54.58
2024-05-09T13:10:31.966Z,53.36
2024-05-09T13:11:25.908Z,53.37
2024-05-09T13:12:24.871Z,51.87
2024-05-09T13:13:24.887Z,52.23
2024-05-09T13:14:24.870Z,54.30
2024-05-09T13:15:24.920Z,55.76
2024-05-09T13:16:24.938Z,56.11
2024-05-09T13:17:25.107Z,52.23
2024-05-09T13:18:24.909Z,52.51
2024-05-09T13:19:24.974Z,55.21
2024-05-09T13:20:31.237Z,54.36
2024-05-09T13:21:25.989Z,54.49
2024-05-09T13:22:24.911Z,54.75
2024-05-09T13:23:24.932Z,54.40
2024-05-09T13:24:24.949Z,55.17
2024-05-09T13:25:24.936Z,56.92
2024-05-09T13:26:24.931Z,52.55
2024-05-09T13:27:24.914Z,54.24
2024-05-09T13:28:25.094Z,55.48
2024-05-09T13:29:25.023Z,56.53
2024-05-09T13:30:30.202Z,54.91
2024-05-09T13:31:26.266Z,53.60
2024-05-09T13:32:25.246Z,55.03
2024-05-09T13:33:25.270Z,51.58
2024-05-09T13:34:25.261Z,54.88
2024-05-09T13:35:25.192Z,52.31
2024-05-09T13:36:25.243Z,50.95
2024-05-09T13:37:25.231Z,52.04
2024-05-09T13:38:25.224Z,50.00
2024-05-09T13:39:25.231Z,50.11
2024-05-09T13:40:32.345Z,50.02
2024-05-09T13:41:26.384Z,50.12
2024-05-09T13:42:25.370Z,50.03
2024-05-09T13:43:25.509Z,49.51
2024-05-09T13:44:25.372Z,47.26
2024-05-09T13:45:25.359Z,49.80
2024-05-09T13:46:25.557Z,51.64
2024-05-09T13:47:25.483Z,52.35
2024-05-09T13:48:25.502Z,54.66
2024-05-09T13:49:25.380Z,53.81
2024-05-09T13:50:33.263Z,54.36
2024-05-09T13:51:26.387Z,54.46
2024-05-09T13:52:25.460Z,54.56
2024-05-09T13:53:25.409Z,55.33
2024-05-09T13:54:25.389Z,54.70
2024-05-09T13:55:25.458Z,54.23
2024-05-09T13:56:25.400Z,54.88
2024-05-09T13:57:25.397Z,56.22
2024-05-09T13:58:25.483Z,56.35
2024-05-09T13:59:25.413Z,56.66
2024-05-09T14:00:37.926Z,58.12
2024-05-09T14:01:26.566Z,58.12
2024-05-09T14:02:25.657Z,57.43
2024-05-09T14:03:25.585Z,58.30
2024-05-09T14:04:25.622Z,60.07
2024-05-09T14:05:25.659Z,60.19
2024-05-09T14:06:25.530Z,59.23
2024-05-09T14:07:25.520Z,57.82
2024-05-09T14:08:25.564Z,59.50
2024-05-09T14:09:25.550Z,59.52
2024-05-09T14:10:29.018Z,61.61
2024-05-09T14:11:26.723Z,61.72
2024-05-09T14:12:25.622Z,62.06
2024-05-09T14:13:25.673Z,63.01
2024-05-09T14:14:25.642Z,64.40
2024-05-09T14:15:25.646Z,67.55
2024-05-09T14:16:25.702Z,71.33
2024-05-09T14:17:25.735Z,71.63
2024-05-09T14:18:25.728Z,72.89
2024-05-09T14:19:25.627Z,73.70
2024-05-09T14:20:31.131Z,74.92
2024-05-09T14:21:26.744Z,74.99
2024-05-09T14:22:25.743Z,75.62
2024-05-09T14:23:25.759Z,76.14
2024-05-09T14:24:25.765Z,78.03
2024-05-09T14:25:25.805Z,83.14
2024-05-09T14:26:25.774Z,85.21
2024-05-09T14:27:25.757Z,85.46
2024-05-09T14:28:25.837Z,88.07
2024-05-09T14:29:25.742Z,88.79
2024-05-09T14:30:33.915Z,93.76
2024-05-09T14:31:26.994Z,93.29
2024-05-09T14:32:25.890Z,94.00
2024-05-09T14:33:25.944Z,94.42
2024-05-09T14:34:26.187Z,96.78
2024-05-09T14:35:25.826Z,99.55
2024-05-09T14:36:25.908Z,97.77
2024-05-09T14:37:25.841Z,102.96
2024-05-09T14:38:25.860Z,101.79
2024-05-09T14:39:25.871Z,106.86
2024-05-09T14:40:36.598Z,104.47
2024-05-09T14:41:26.984Z,104.57
2024-05-09T14:42:25.992Z,105.00
2024-05-09T14:43:26.160Z,106.00
2024-05-09T14:44:25.982Z,107.74
2024-05-09T14:45:25.990Z,111.68
2024-05-09T14:46:26.160Z,110.75
2024-05-09T14:47:26.134Z,114.24
2024-05-09T14:48:26.134Z,114.12
2024-05-09T14:49:26.025Z,115.93
2024-05-09T14:50:34.110Z,118.06
2024-05-09T14:51:27.001Z,118.09
2024-05-09T14:52:25.998Z,118.30
2024-05-09T14:53:26.025Z,118.96
2024-05-09T14:54:26.006Z,120.30
2024-05-09T14:55:26.098Z,122.97
2024-05-09T14:56:26.010Z,123.21
2024-05-09T14:57:26.004Z,122.91
2024-05-09T14:58:26.084Z,126.59
2024-05-09T14:59:26.001Z,126.66
2024-05-09T15:00:29.638Z,125.56
2024-05-09T15:01:27.072Z,125.64
2024-05-09T15:02:26.071Z,125.07
2024-05-09T15:03:26.121Z,127.08
2024-05-09T15:04:26.170Z,126.98
2024-05-09T15:05:26.167Z,129.80
2024-05-09T15:06:26.099Z,131.07
2024-05-09T15:07:26.042Z,130.35
2024-05-09T15:08:26.080Z,131.57
2024-05-09T15:09:26.021Z,134.55
2024-05-09T15:10:33.528Z,133.63
2024-05-09T15:11:27.163Z,133.68
2024-05-09T15:12:26.160Z,133.95
2024-05-09T15:13:26.368Z,134.48
2024-05-09T15:14:26.130Z,135.46
2024-05-09T15:15:26.137Z,135.75
2024-05-09T15:16:26.329Z,135.55
2024-05-09T15:17:26.249Z,137.20
2024-05-09T15:18:26.173Z,136.90
2024-05-09T15:19:26.259Z,139.13
2024-05-09T15:20:33.217Z,137.77
2024-05-09T15:21:27.166Z,137.84
2024-05-09T15:22:26.182Z,138.14
2024-05-09T15:23:26.164Z,138.85
2024-05-09T15:24:26.245Z,138.14
2024-05-09T15:25:26.209Z,138.99
2024-05-09T15:26:26.200Z,144.08
2024-05-09T15:27:26.317Z,142.80
2024-05-09T15:29:26.216Z,141.73
2024-05-09T15:30:30.307Z,142.59
2024-05-09T15:31:27.235Z,141.90
2024-05-09T15:32:26.322Z,142.94
2024-05-09T15:33:26.266Z,144.32
2024-05-09T15:34:26.263Z,146.57
2024-05-09T15:35:26.226Z,147.59
2024-05-09T15:36:26.304Z,150.49
2024-05-09T15:37:26.298Z,148.90
2024-05-09T15:38:26.242Z,147.38
2024-05-09T15:39:26.225Z,149.59
2024-05-09T15:40:35.510Z,147.16
2024-05-09T15:41:27.368Z,147.28
2024-05-09T15:42:26.372Z,147.60
2024-05-09T15:43:26.474Z,147.64
2024-05-09T15:44:26.351Z,147.90
2024-05-09T15:45:26.370Z,148.31
2024-05-09T15:46:26.497Z,149.09
2024-05-09T15:47:26.381Z,148.60
2024-05-09T15:48:26.460Z,151.14
2024-05-09T15:49:26.654Z,148.33
2024-05-09T15:50:32.878Z,148.59
2024-05-09T15:51:27.656Z,148.67
2024-05-09T15:52:26.650Z,148.70
2024-05-09T15:53:26.683Z,149.49
2024-05-09T15:54:26.636Z,149.55
2024-05-09T15:55:26.671Z,150.55
2024-05-09T15:56:26.680Z,149.93
2024-05-09T15:57:26.657Z,150.57
2024-05-09T15:58:26.709Z,150.27
2024-05-09T15:59:26.664Z,150.21
2024-05-09T16:00:36.039Z,151.27
2024-05-09T16:01:27.950Z,151.27
2024-05-09T16:02:26.960Z,151.56
2024-05-09T16:03:26.947Z,151.95
2024-05-09T16:04:26.998Z,151.66
2024-05-09T16:05:27.126Z,153.23
2024-05-09T16:06:26.802Z,152.39
2024-05-09T16:07:26.831Z,152.12
2024-05-09T16:08:26.775Z,153.60
2024-05-09T16:09:26.873Z,153.66
2024-05-09T16:10:32.363Z,153.44
2024-05-09T16:11:27.862Z,153.46
2024-05-09T16:12:26.823Z,153.58
2024-05-09T16:13:26.914Z,153.91
2024-05-09T16:14:26.815Z,154.97
2024-05-09T16:15:26.842Z,153.55
2024-05-09T16:16:26.954Z,154.15
2024-05-09T16:17:26.953Z,153.37
2024-05-09T16:18:26.869Z,154.83
2024-05-09T16:19:26.837Z,155.72
2024-05-09T16:20:35.003Z,155.05
2024-05-09T16:21:27.844Z,155.08
2024-05-09T16:22:26.898Z,155.04
2024-05-09T16:23:26.854Z,155.05
2024-05-09T16:24:26.852Z,155.40
2024-05-09T16:25:26.874Z,155.34
2024-05-09T16:26:26.839Z,154.04
2024-05-09T16:27:26.844Z,156.84
2024-05-09T16:28:27.259Z,156.09
2024-05-09T16:29:26.867Z,156.11
2024-05-09T16:30:33.930Z,155.39
2024-05-09T16:31:27.943Z,155.46
2024-05-09T16:32:26.934Z,155.46
2024-05-09T16:33:26.899Z,154.11
2024-05-09T16:34:26.998Z,156.22
2024-05-09T16:35:26.874Z,156.19
2024-05-09T16:36:26.906Z,155.55
2024-05-09T16:37:29.547Z,153.61
2024-05-09T16:38:26.881Z,155.00
2024-05-09T16:39:26.882Z,157.76
2024-05-09T16:40:34.746Z,155.95
2024-05-09T16:41:27.897Z,156.01
2024-05-09T16:42:26.907Z,156.15
2024-05-09T16:43:26.911Z,156.63
2024-05-09T16:44:26.908Z,157.32
2024-05-09T16:45:26.917Z,157.04
2024-05-09T16:46:27.027Z,156.18
2024-05-09T16:47:27.008Z,157.88
2024-05-09T16:48:27.014Z,158.15
2024-05-09T16:49:27.129Z,156.16
2024-05-09T16:50:32.395Z,155.98
2024-05-09T16:51:28.164Z,156.08
2024-05-09T16:52:27.226Z,156.29
2024-05-09T16:53:27.174Z,156.53
2024-05-09T16:54:27.204Z,158.05
2024-05-09T16:55:27.431Z,159.50
2024-05-09T16:56:27.232Z,157.93
2024-05-09T16:57:27.201Z,157.82
2024-05-09T16:58:27.472Z,156.86
2024-05-09T16:59:27.242Z,158.67
2024-05-09T17:00:36.636Z,158.59
